sensor_id;sensor_type;location;lat;lon;timestamp;temperature;humidity
13174;DHT22;6652;48.802;9.190;2023-07-28T00:01:09;17.70;99.90
13174;DHT22;6652;48.802;9.190;2023-07-28T00:03:36;17.60;99.90
13174;DHT22;6652;48.802;9.190;2023-07-28T00:06:03;17.60;99.90
13174;DHT22;6652;48.802;9.190;2023-07-28T00:08:30;17.50;99.90
13174;DHT22;6652;48.802;9.190;2023-07-28T00:10:57;17.50;99.90
13174;DHT22;6652;48.802;9.190;2023-07-28T00:13:25;17.50;99.90
13174;DHT22;6652;48.802;9.190;2023-07-28T00:15:52;17.40;99.90
13174;DHT22;6652;48.802;9.190;2023-07-28T00:18:19;17.40;99.90
13174;DHT22;6652;48.802;9.190;2023-07-28T00:20:46;17.40;99.90
13174;DHT22;6652;48.802;9.190;2023-07-28T00:23:13;17.40;99.90
13174;DHT22;6652;48.802;9.190;2023-07-28T00:25:40;17.40;99.90
13174;DHT22;6652;48.802;9.190;2023-07-28T00:28:07;17.40;99.90
13174;DHT22;6652;48.802;9.190;2023-07-28T00:30:36;17.40;99.90
13174;DHT22;6652;48.802;9.190;2023-07-28T00:33:03;17.40;99.90
13174;DHT22;6652;48.802;9.190;2023-07-28T00:35:30;17.40;99.90
13174;DHT22;6652;48.802;9.190;2023-07-28T00:37:57;17.40;99.90
13174;DHT22;6652;48.802;9.190;2023-07-28T00:40:24;17.50;99.90
13174;DHT22;6652;48.802;9.190;2023-07-28T00:42:51;17.50;99.90
13174;DHT22;6652;48.802;9.190;2023-07-28T00:45:18;17.50;99.90
13174;DHT22;6652;48.802;9.190;2023-07-28T00:47:46;17.50;99.90
13174;DHT22;6652;48.802;9.190;2023-07-28T00:50:13;17.50;99.90
13174;DHT22;6652;48.802;9.190;2023-07-28T00:52:40;17.50;99.90
13174;DHT22;6652;48.802;9.190;2023-07-28T00:55:08;17.50;99.90
13174;DHT22;6652;48.802;9.190;2023-07-28T00:57:36;17.50;99.90
13174;DHT22;6652;48.802;9.190;2023-07-28T01:00:05;17.50;99.90
13174;DHT22;6652;48.802;9.190;2023-07-28T01:02:33;17.60;99.90
13174;DHT22;6652;48.802;9.190;2023-07-28T01:05:01;17.50;99.90
13174;DHT22;6652;48.802;9.190;2023-07-28T01:07:36;17.60;99.90
13174;DHT22;6652;48.802;9.190;2023-07-28T01:10:08;17.60;99.90
13174;DHT22;6652;48.802;9.190;2023-07-28T01:12:36;17.60;99.90
13174;DHT22;6652;48.802;9.190;2023-07-28T01:15:04;17.60;99.90
13174;DHT22;6652;48.802;9.190;2023-07-28T01:17:31;17.60;99.90
13174;DHT22;6652;48.802;9.190;2023-07-28T01:19:58;17.60;99.90
13174;DHT22;6652;48.802;9.190;2023-07-28T01:22:49;17.60;99.90
13174;DHT22;6652;48.802;9.190;2023-07-28T01:25:28;17.70;99.90
13174;DHT22;6652;48.802;9.190;2023-07-28T01:27:57;17.70;99.90
13174;DHT22;6652;48.802;9.190;2023-07-28T01:30:26;17.70;99.90
13174;DHT22;6652;48.802;9.190;2023-07-28T01:32:54;17.70;99.90
13174;DHT22;6652;48.802;9.190;2023-07-28T01:35:22;17.70;99.90
13174;DHT22;6652;48.802;9.190;2023-07-28T01:37:48;17.70;99.90
13174;DHT22;6652;48.802;9.190;2023-07-28T01:40:16;17.60;99.90
13174;DHT22;6652;48.802;9.190;2023-07-28T01:42:43;17.60;99.90
13174;DHT22;6652;48.802;9.190;2023-07-28T01:45:11;17.70;99.90
13174;DHT22;6652;48.802;9.190;2023-07-28T01:47:38;17.60;99.90
13174;DHT22;6652;48.802;9.190;2023-07-28T01:50:05;17.60;99.90
13174;DHT22;6652;48.802;9.190;2023-07-28T01:52:32;17.60;99.90
13174;DHT22;6652;48.802;9.190;2023-07-28T01:54:59;17.60;99.90
13174;DHT22;6652;48.802;9.190;2023-07-28T01:57:26;17.70;99.90
13174;DHT22;6652;48.802;9.190;2023-07-28T01:59:53;17.70;99.90
13174;DHT22;6652;48.802;9.190;2023-07-28T02:02:22;17.70;99.90
13174;DHT22;6652;48.802;9.190;2023-07-28T02:04:48;17.70;99.90
13174;DHT22;6652;48.802;9.190;2023-07-28T02:07:15;17.70;99.90
13174;DHT22;6652;48.802;9.190;2023-07-28T02:09:42;17.80;99.90
13174;DHT22;6652;48.802;9.190;2023-07-28T02:12:09;17.80;99.90
13174;DHT22;6652;48.802;9.190;2023-07-28T02:14:36;17.70;99.90
13174;DHT22;6652;48.802;9.190;2023-07-28T02:17:03;17.70;99.90
13174;DHT22;6652;48.802;9.190;2023-07-28T02:19:31;17.70;99.90
13174;DHT22;6652;48.802;9.190;2023-07-28T02:21:58;17.60;99.90
13174;DHT22;6652;48.802;9.190;2023-07-28T02:24:24;17.60;99.90
13174;DHT22;6652;48.802;9.190;2023-07-28T02:26:51;17.60;99.90
13174;DHT22;6652;48.802;9.190;2023-07-28T02:29:20;17.50;99.90
13174;DHT22;6652;48.802;9.190;2023-07-28T02:31:46;17.50;99.90
13174;DHT22;6652;48.802;9.190;2023-07-28T02:34:13;17.50;99.90
13174;DHT22;6652;48.802;9.190;2023-07-28T02:36:41;17.50;99.90
13174;DHT22;6652;48.802;9.190;2023-07-28T02:39:08;17.40;99.90
13174;DHT22;6652;48.802;9.190;2023-07-28T02:41:35;17.40;99.90
13174;DHT22;6652;48.802;9.190;2023-07-28T02:44:11;17.40;99.90
13174;DHT22;6652;48.802;9.190;2023-07-28T02:46:38;17.40;99.90
13174;DHT22;6652;48.802;9.190;2023-07-28T02:49:04;17.30;99.90
13174;DHT22;6652;48.802;9.190;2023-07-28T02:51:31;17.50;99.90
13174;DHT22;6652;48.802;9.190;2023-07-28T02:54:00;17.30;99.90
13174;DHT22;6652;48.802;9.190;2023-07-28T02:56:27;17.30;99.90
13174;DHT22;6652;48.802;9.190;2023-07-28T02:58:54;17.40;99.90
13174;DHT22;6652;48.802;9.190;2023-07-28T03:01:20;17.30;99.90
13174;DHT22;6652;48.802;9.190;2023-07-28T03:03:47;17.40;99.90
13174;DHT22;6652;48.802;9.190;2023-07-28T03:06:14;17.40;99.90
13174;DHT22;6652;48.802;9.190;2023-07-28T03:08:41;17.40;99.90
13174;DHT22;6652;48.802;9.190;2023-07-28T03:11:09;17.30;99.90
13174;DHT22;6652;48.802;9.190;2023-07-28T03:13:36;17.30;99.90
13174;DHT22;6652;48.802;9.190;2023-07-28T03:16:02;17.30;99.90
13174;DHT22;6652;48.802;9.190;2023-07-28T03:18:29;17.40;99.90
13174;DHT22;6652;48.802;9.190;2023-07-28T03:20:56;17.40;99.90
13174;DHT22;6652;48.802;9.190;2023-07-28T03:23:23;17.40;99.90
13174;DHT22;6652;48.802;9.190;2023-07-28T03:25:50;17.40;99.90
13174;DHT22;6652;48.802;9.190;2023-07-28T03:28:18;17.40;99.90
13174;DHT22;6652;48.802;9.190;2023-07-28T03:30:45;17.40;99.90
13174;DHT22;6652;48.802;9.190;2023-07-28T03:33:11;17.40;99.90
13174;DHT22;6652;48.802;9.190;2023-07-28T03:35:38;17.30;99.90
13174;DHT22;6652;48.802;9.190;2023-07-28T03:38:05;17.50;99.90
13174;DHT22;6652;48.802;9.190;2023-07-28T03:40:32;17.40;99.90
13174;DHT22;6652;48.802;9.190;2023-07-28T03:42:59;17.30;99.90
13174;DHT22;6652;48.802;9.190;2023-07-28T03:45:27;17.30;99.90
13174;DHT22;6652;48.802;9.190;2023-07-28T03:47:54;17.40;99.90
13174;DHT22;6652;48.802;9.190;2023-07-28T03:50:21;17.30;99.90
13174;DHT22;6652;48.802;9.190;2023-07-28T03:52:50;17.40;99.90
13174;DHT22;6652;48.802;9.190;2023-07-28T03:55:16;17.40;99.90
13174;DHT22;6652;48.802;9.190;2023-07-28T03:57:43;17.40;99.90
13174;DHT22;6652;48.802;9.190;2023-07-28T04:00:11;17.50;99.90
13174;DHT22;6652;48.802;9.190;2023-07-28T04:02:40;17.40;99.90
13174;DHT22;6652;48.802;9.190;2023-07-28T04:05:07;17.40;99.90
13174;DHT22;6652;48.802;9.190;2023-07-28T04:07:35;17.50;99.90
13174;DHT22;6652;48.802;9.190;2023-07-28T04:10:01;17.50;99.90
13174;DHT22;6652;48.802;9.190;2023-07-28T04:12:28;17.50;99.90
13174;DHT22;6652;48.802;9.190;2023-07-28T04:14:55;17.60;99.90
13174;DHT22;6652;48.802;9.190;2023-07-28T04:17:22;17.60;99.90
13174;DHT22;6652;48.802;9.190;2023-07-28T04:19:50;17.60;99.90
13174;DHT22;6652;48.802;9.190;2023-07-28T04:22:17;17.70;99.90
13174;DHT22;6652;48.802;9.190;2023-07-28T04:24:46;17.60;99.90
13174;DHT22;6652;48.802;9.190;2023-07-28T04:27:13;17.70;99.90
13174;DHT22;6652;48.802;9.190;2023-07-28T04:29:41;17.80;99.90
13174;DHT22;6652;48.802;9.190;2023-07-28T04:32:08;17.80;99.90
13174;DHT22;6652;48.802;9.190;2023-07-28T04:34:35;17.80;99.90
13174;DHT22;6652;48.802;9.190;2023-07-28T04:37:04;17.90;99.90
13174;DHT22;6652;48.802;9.190;2023-07-28T04:39:31;17.90;99.90
13174;DHT22;6652;48.802;9.190;2023-07-28T04:41:58;17.90;99.90
13174;DHT22;6652;48.802;9.190;2023-07-28T04:44:24;17.90;99.90
13174;DHT22;6652;48.802;9.190;2023-07-28T04:46:51;17.90;99.90
13174;DHT22;6652;48.802;9.190;2023-07-28T04:49:18;17.90;99.90
13174;DHT22;6652;48.802;9.190;2023-07-28T04:51:47;17.90;99.90
13174;DHT22;6652;48.802;9.190;2023-07-28T04:54:15;17.90;99.90
13174;DHT22;6652;48.802;9.190;2023-07-28T04:56:41;17.90;99.90
13174;DHT22;6652;48.802;9.190;2023-07-28T04:59:08;17.90;99.90
13174;DHT22;6652;48.802;9.190;2023-07-28T05:01:35;17.90;99.90
13174;DHT22;6652;48.802;9.190;2023-07-28T05:04:02;17.90;99.90
13174;DHT22;6652;48.802;9.190;2023-07-28T05:06:28;17.90;99.90
13174;DHT22;6652;48.802;9.190;2023-07-28T05:08:55;18.00;99.90
13174;DHT22;6652;48.802;9.190;2023-07-28T05:11:53;17.90;99.90
13174;DHT22;6652;48.802;9.190;2023-07-28T05:14:20;17.80;99.90
13174;DHT22;6652;48.802;9.190;2023-07-28T05:16:47;17.90;99.90
13174;DHT22;6652;48.802;9.190;2023-07-28T05:19:14;17.90;99.90
13174;DHT22;6652;48.802;9.190;2023-07-28T05:21:41;17.80;99.90
13174;DHT22;6652;48.802;9.190;2023-07-28T05:24:08;17.90;99.90
13174;DHT22;6652;48.802;9.190;2023-07-28T05:26:35;17.90;99.90
13174;DHT22;6652;48.802;9.190;2023-07-28T05:29:03;17.90;99.90
13174;DHT22;6652;48.802;9.190;2023-07-28T05:31:30;17.90;99.90
13174;DHT22;6652;48.802;9.190;2023-07-28T05:33:56;17.90;99.90
13174;DHT22;6652;48.802;9.190;2023-07-28T05:36:23;18.00;99.90
13174;DHT22;6652;48.802;9.190;2023-07-28T05:38:50;17.90;99.90
13174;DHT22;6652;48.802;9.190;2023-07-28T05:41:19;18.00;99.90
13174;DHT22;6652;48.802;9.190;2023-07-28T05:43:46;17.90;99.90
13174;DHT22;6652;48.802;9.190;2023-07-28T05:46:37;18.10;99.90
13174;DHT22;6652;48.802;9.190;2023-07-28T05:49:04;18.20;99.90
13174;DHT22;6652;48.802;9.190;2023-07-28T05:51:31;18.20;99.90
13174;DHT22;6652;48.802;9.190;2023-07-28T05:53:58;18.20;99.90
13174;DHT22;6652;48.802;9.190;2023-07-28T05:56:25;18.30;99.90
13174;DHT22;6652;48.802;9.190;2023-07-28T05:58:51;18.30;99.90
13174;DHT22;6652;48.802;9.190;2023-07-28T06:01:18;18.40;99.90
13174;DHT22;6652;48.802;9.190;2023-07-28T06:03:46;18.40;99.90
13174;DHT22;6652;48.802;9.190;2023-07-28T06:06:13;18.40;99.90
13174;DHT22;6652;48.802;9.190;2023-07-28T06:08:40;18.40;99.90
13174;DHT22;6652;48.802;9.190;2023-07-28T06:11:07;18.40;99.90
13174;DHT22;6652;48.802;9.190;2023-07-28T06:13:33;18.40;99.90
13174;DHT22;6652;48.802;9.190;2023-07-28T06:16:00;18.40;99.90
13174;DHT22;6652;48.802;9.190;2023-07-28T06:18:27;18.40;99.90
13174;DHT22;6652;48.802;9.190;2023-07-28T06:20:55;18.50;99.90
13174;DHT22;6652;48.802;9.190;2023-07-28T06:23:22;18.50;99.90
13174;DHT22;6652;48.802;9.190;2023-07-28T06:25:49;18.40;99.90
13174;DHT22;6652;48.802;9.190;2023-07-28T06:28:16;18.40;99.90
13174;DHT22;6652;48.802;9.190;2023-07-28T06:30:43;18.50;99.90
13174;DHT22;6652;48.802;9.190;2023-07-28T06:33:10;18.50;99.90
13174;DHT22;6652;48.802;9.190;2023-07-28T06:35:37;18.60;99.90
13174;DHT22;6652;48.802;9.190;2023-07-28T06:38:05;18.50;99.90
13174;DHT22;6652;48.802;9.190;2023-07-28T06:40:32;19.20;99.90
13174;DHT22;6652;48.802;9.190;2023-07-28T06:43:00;18.60;99.90
13174;DHT22;6652;48.802;9.190;2023-07-28T06:45:26;18.60;99.90
13174;DHT22;6652;48.802;9.190;2023-07-28T06:47:54;19.10;99.90
13174;DHT22;6652;48.802;9.190;2023-07-28T06:50:21;18.60;99.90
13174;DHT22;6652;48.802;9.190;2023-07-28T06:52:48;18.60;99.90
13174;DHT22;6652;48.802;9.190;2023-07-28T06:55:17;18.60;99.90
13174;DHT22;6652;48.802;9.190;2023-07-28T06:57:44;18.70;99.90
13174;DHT22;6652;48.802;9.190;2023-07-28T07:00:12;18.80;99.90
13174;DHT22;6652;48.802;9.190;2023-07-28T07:02:39;18.90;99.90
13174;DHT22;6652;48.802;9.190;2023-07-28T07:05:06;18.90;99.90
13174;DHT22;6652;48.802;9.190;2023-07-28T07:07:33;19.00;99.90
13174;DHT22;6652;48.802;9.190;2023-07-28T07:10:00;19.10;99.90
13174;DHT22;6652;48.802;9.190;2023-07-28T07:12:28;19.20;99.90
13174;DHT22;6652;48.802;9.190;2023-07-28T07:14:55;19.20;99.90
13174;DHT22;6652;48.802;9.190;2023-07-28T07:17:22;19.30;99.90
13174;DHT22;6652;48.802;9.190;2023-07-28T07:19:49;18.70;99.90
13174;DHT22;6652;48.802;9.190;2023-07-28T07:22:16;20.30;99.90
13174;DHT22;6652;48.802;9.190;2023-07-28T07:24:43;20.40;99.90
13174;DHT22;6652;48.802;9.190;2023-07-28T07:27:10;19.40;99.90
13174;DHT22;6652;48.802;9.190;2023-07-28T07:29:39;19.50;99.90
13174;DHT22;6652;48.802;9.190;2023-07-28T07:32:07;19.50;99.90
13174;DHT22;6652;48.802;9.190;2023-07-28T07:37:10;19.60;99.90
13174;DHT22;6652;48.802;9.190;2023-07-28T07:39:37;19.70;99.90
13174;DHT22;6652;48.802;9.190;2023-07-28T07:42:06;19.80;99.90
13174;DHT22;6652;48.802;9.190;2023-07-28T07:44:33;20.00;99.90
13174;DHT22;6652;48.802;9.190;2023-07-28T07:47:11;20.20;99.90
13174;DHT22;6652;48.802;9.190;2023-07-28T07:49:38;20.40;99.90
13174;DHT22;6652;48.802;9.190;2023-07-28T07:52:07;20.90;99.90
13174;DHT22;6652;48.802;9.190;2023-07-28T07:54:34;20.60;99.90
13174;DHT22;6652;48.802;9.190;2023-07-28T07:57:01;20.50;99.90
13174;DHT22;6652;48.802;9.190;2023-07-28T07:59:28;20.40;99.90
13174;DHT22;6652;48.802;9.190;2023-07-28T08:01:57;20.30;99.90
13174;DHT22;6652;48.802;9.190;2023-07-28T08:04:27;20.30;99.90
13174;DHT22;6652;48.802;9.190;2023-07-28T08:06:54;20.40;99.90
13174;DHT22;6652;48.802;9.190;2023-07-28T08:09:21;20.50;99.90
13174;DHT22;6652;48.802;9.190;2023-07-28T08:11:48;20.80;99.90
13174;DHT22;6652;48.802;9.190;2023-07-28T08:14:15;20.80;99.90
13174;DHT22;6652;48.802;9.190;2023-07-28T08:16:42;20.90;99.90
13174;DHT22;6652;48.802;9.190;2023-07-28T08:19:09;21.00;99.90
13174;DHT22;6652;48.802;9.190;2023-07-28T08:21:37;20.90;99.90
13174;DHT22;6652;48.802;9.190;2023-07-28T08:24:04;20.80;99.90
13174;DHT22;6652;48.802;9.190;2023-07-28T08:26:31;20.80;99.90
13174;DHT22;6652;48.802;9.190;2023-07-28T08:28:58;20.80;99.90
13174;DHT22;6652;48.802;9.190;2023-07-28T08:31:25;20.80;99.90
13174;DHT22;6652;48.802;9.190;2023-07-28T08:33:51;20.80;99.90
13174;DHT22;6652;48.802;9.190;2023-07-28T08:36:18;20.50;99.90
13174;DHT22;6652;48.802;9.190;2023-07-28T08:38:46;21.50;99.90
13174;DHT22;6652;48.802;9.190;2023-07-28T08:41:14;21.00;99.90
13174;DHT22;6652;48.802;9.190;2023-07-28T08:43:42;21.10;99.90
13174;DHT22;6652;48.802;9.190;2023-07-28T08:46:08;21.20;99.90
13174;DHT22;6652;48.802;9.190;2023-07-28T08:48:35;21.70;99.90
13174;DHT22;6652;48.802;9.190;2023-07-28T08:51:02;21.60;99.90
13174;DHT22;6652;48.802;9.190;2023-07-28T08:53:30;21.30;99.90
13174;DHT22;6652;48.802;9.190;2023-07-28T08:55:58;21.40;99.90
13174;DHT22;6652;48.802;9.190;2023-07-28T08:58:25;21.50;99.90
13174;DHT22;6652;48.802;9.190;2023-07-28T09:00:52;21.60;99.90
13174;DHT22;6652;48.802;9.190;2023-07-28T09:03:20;21.70;99.90
13174;DHT22;6652;48.802;9.190;2023-07-28T09:05:48;21.80;99.90
13174;DHT22;6652;48.802;9.190;2023-07-28T09:08:15;21.70;99.90
13174;DHT22;6652;48.802;9.190;2023-07-28T09:10:43;21.40;99.90
13174;DHT22;6652;48.802;9.190;2023-07-28T09:13:13;21.40;99.90
13174;DHT22;6652;48.802;9.190;2023-07-28T09:15:40;21.40;99.90
13174;DHT22;6652;48.802;9.190;2023-07-28T09:18:11;21.40;99.90
13174;DHT22;6652;48.802;9.190;2023-07-28T09:20:39;22.00;99.90
13174;DHT22;6652;48.802;9.190;2023-07-28T09:23:08;21.30;99.90
13174;DHT22;6652;48.802;9.190;2023-07-28T09:25:36;21.30;99.90
13174;DHT22;6652;48.802;9.190;2023-07-28T09:28:03;21.70;99.90
13174;DHT22;6652;48.802;9.190;2023-07-28T09:30:46;21.20;99.90
13174;DHT22;6652;48.802;9.190;2023-07-28T09:33:13;21.30;99.90
13174;DHT22;6652;48.802;9.190;2023-07-28T09:35:50;21.30;99.90
13174;DHT22;6652;48.802;9.190;2023-07-28T09:38:18;21.50;99.90
13174;DHT22;6652;48.802;9.190;2023-07-28T09:40:46;21.60;99.90
13174;DHT22;6652;48.802;9.190;2023-07-28T09:43:13;22.30;99.90
13174;DHT22;6652;48.802;9.190;2023-07-28T09:45:40;22.00;99.90
13174;DHT22;6652;48.802;9.190;2023-07-28T09:48:10;22.30;99.90
13174;DHT22;6652;48.802;9.190;2023-07-28T09:50:39;22.40;99.90
13174;DHT22;6652;48.802;9.190;2023-07-28T09:53:08;22.80;99.90
13174;DHT22;6652;48.802;9.190;2023-07-28T09:55:38;23.10;99.90
13174;DHT22;6652;48.802;9.190;2023-07-28T09:58:08;23.20;99.90
13174;DHT22;6652;48.802;9.190;2023-07-28T10:00:35;23.10;99.90
13174;DHT22;6652;48.802;9.190;2023-07-28T10:03:04;23.00;99.90
13174;DHT22;6652;48.802;9.190;2023-07-28T10:05:33;22.90;99.90
13174;DHT22;6652;48.802;9.190;2023-07-28T10:08:01;22.80;99.90
13174;DHT22;6652;48.802;9.190;2023-07-28T10:10:29;22.80;99.90
13174;DHT22;6652;48.802;9.190;2023-07-28T10:12:58;22.90;99.90
13174;DHT22;6652;48.802;9.190;2023-07-28T10:15:28;22.80;99.90
13174;DHT22;6652;48.802;9.190;2023-07-28T10:17:57;22.90;99.90
13174;DHT22;6652;48.802;9.190;2023-07-28T10:20:34;22.80;99.90
13174;DHT22;6652;48.802;9.190;2023-07-28T10:23:06;23.00;99.90
13174;DHT22;6652;48.802;9.190;2023-07-28T10:25:34;22.90;99.90
13174;DHT22;6652;48.802;9.190;2023-07-28T10:28:02;22.80;99.90
13174;DHT22;6652;48.802;9.190;2023-07-28T10:30:37;22.90;99.90
13174;DHT22;6652;48.802;9.190;2023-07-28T10:33:05;23.00;99.90
13174;DHT22;6652;48.802;9.190;2023-07-28T10:35:33;23.00;99.90
13174;DHT22;6652;48.802;9.190;2023-07-28T10:38:28;23.00;99.90
13174;DHT22;6652;48.802;9.190;2023-07-28T10:41:10;22.90;99.90
13174;DHT22;6652;48.802;9.190;2023-07-28T10:43:37;22.80;99.90
13174;DHT22;6652;48.802;9.190;2023-07-28T10:46:04;22.80;99.90
13174;DHT22;6652;48.802;9.190;2023-07-28T10:48:34;22.80;99.90
13174;DHT22;6652;48.802;9.190;2023-07-28T10:51:02;23.00;99.90
13174;DHT22;6652;48.802;9.190;2023-07-28T10:53:31;23.10;99.90
13174;DHT22;6652;48.802;9.190;2023-07-28T10:55:58;23.10;99.90
13174;DHT22;6652;48.802;9.190;2023-07-28T10:58:25;23.30;99.90
13174;DHT22;6652;48.802;9.190;2023-07-28T11:00:52;23.30;99.90
13174;DHT22;6652;48.802;9.190;2023-07-28T11:03:19;23.20;99.90
13174;DHT22;6652;48.802;9.190;2023-07-28T11:05:48;23.20;99.90
13174;DHT22;6652;48.802;9.190;2023-07-28T11:08:17;23.30;99.90
13174;DHT22;6652;48.802;9.190;2023-07-28T11:10:44;23.50;99.90
13174;DHT22;6652;48.802;9.190;2023-07-28T11:13:12;23.70;99.90
13174;DHT22;6652;48.802;9.190;2023-07-28T11:15:39;23.90;99.90
13174;DHT22;6652;48.802;9.190;2023-07-28T11:18:06;24.10;99.90
13174;DHT22;6652;48.802;9.190;2023-07-28T11:20:35;24.30;99.90
13174;DHT22;6652;48.802;9.190;2023-07-28T11:23:03;24.30;99.90
13174;DHT22;6652;48.802;9.190;2023-07-28T11:25:32;24.40;99.90
13174;DHT22;6652;48.802;9.190;2023-07-28T11:28:01;25.10;99.90
13174;DHT22;6652;48.802;9.190;2023-07-28T11:30:28;24.90;99.90
13174;DHT22;6652;48.802;9.190;2023-07-28T11:32:55;25.20;99.90
13174;DHT22;6652;48.802;9.190;2023-07-28T11:35:22;25.60;99.90
13174;DHT22;6652;48.802;9.190;2023-07-28T11:37:50;25.70;99.90
13174;DHT22;6652;48.802;9.190;2023-07-28T11:40:20;26.10;99.90
13174;DHT22;6652;48.802;9.190;2023-07-28T11:42:50;26.30;99.90
13174;DHT22;6652;48.802;9.190;2023-07-28T11:45:18;26.50;99.90
13174;DHT22;6652;48.802;9.190;2023-07-28T11:47:55;26.80;99.90
13174;DHT22;6652;48.802;9.190;2023-07-28T11:50:23;27.00;99.90
13174;DHT22;6652;48.802;9.190;2023-07-28T11:52:50;27.10;99.90
13174;DHT22;6652;48.802;9.190;2023-07-28T11:55:17;27.10;99.90
13174;DHT22;6652;48.802;9.190;2023-07-28T11:57:44;27.00;99.90
13174;DHT22;6652;48.802;9.190;2023-07-28T12:00:14;27.00;99.90
13174;DHT22;6652;48.802;9.190;2023-07-28T12:02:43;26.90;99.90
13174;DHT22;6652;48.802;9.190;2023-07-28T12:05:12;26.80;99.90
13174;DHT22;6652;48.802;9.190;2023-07-28T12:07:39;26.70;99.90
13174;DHT22;6652;48.802;9.190;2023-07-28T12:10:07;26.40;99.90
13174;DHT22;6652;48.802;9.190;2023-07-28T12:12:45;26.10;99.90
13174;DHT22;6652;48.802;9.190;2023-07-28T12:15:23;25.90;99.90
13174;DHT22;6652;48.802;9.190;2023-07-28T12:18:07;25.60;99.90
13174;DHT22;6652;48.802;9.190;2023-07-28T12:20:36;25.40;99.90
13174;DHT22;6652;48.802;9.190;2023-07-28T12:23:03;25.10;99.90
13174;DHT22;6652;48.802;9.190;2023-07-28T12:25:30;24.70;99.90
13174;DHT22;6652;48.802;9.190;2023-07-28T12:27:57;24.70;99.90
13174;DHT22;6652;48.802;9.190;2023-07-28T12:30:25;24.50;99.90
13174;DHT22;6652;48.802;9.190;2023-07-28T12:32:52;24.50;99.90
13174;DHT22;6652;48.802;9.190;2023-07-28T12:35:19;24.60;99.90
13174;DHT22;6652;48.802;9.190;2023-07-28T12:37:47;24.60;99.90
13174;DHT22;6652;48.802;9.190;2023-07-28T12:40:14;24.50;99.90
13174;DHT22;6652;48.802;9.190;2023-07-28T12:42:40;24.30;99.90
13174;DHT22;6652;48.802;9.190;2023-07-28T12:45:08;24.40;99.90
13174;DHT22;6652;48.802;9.190;2023-07-28T12:50:05;24.40;99.90
13174;DHT22;6652;48.802;9.190;2023-07-28T12:52:33;24.50;99.90
13174;DHT22;6652;48.802;9.190;2023-07-28T12:55:00;24.60;99.90
13174;DHT22;6652;48.802;9.190;2023-07-28T12:57:27;24.70;99.90
13174;DHT22;6652;48.802;9.190;2023-07-28T12:59:53;24.80;99.90
13174;DHT22;6652;48.802;9.190;2023-07-28T13:02:20;25.00;99.90
13174;DHT22;6652;48.802;9.190;2023-07-28T13:04:49;25.10;99.90
13174;DHT22;6652;48.802;9.190;2023-07-28T13:07:15;25.30;99.90
13174;DHT22;6652;48.802;9.190;2023-07-28T13:09:43;25.10;99.90
13174;DHT22;6652;48.802;9.190;2023-07-28T13:12:11;25.10;99.90
13174;DHT22;6652;48.802;9.190;2023-07-28T13:14:37;25.20;99.90
13174;DHT22;6652;48.802;9.190;2023-07-28T13:17:06;25.00;99.90
13174;DHT22;6652;48.802;9.190;2023-07-28T13:19:34;25.00;99.90
13174;DHT22;6652;48.802;9.190;2023-07-28T13:22:02;25.20;99.90
13174;DHT22;6652;48.802;9.190;2023-07-28T13:24:29;25.00;99.90
13174;DHT22;6652;48.802;9.190;2023-07-28T13:26:56;24.90;99.90
13174;DHT22;6652;48.802;9.190;2023-07-28T13:29:22;25.00;99.90
13174;DHT22;6652;48.802;9.190;2023-07-28T13:31:49;24.70;99.90
13174;DHT22;6652;48.802;9.190;2023-07-28T13:34:16;24.50;99.90
13174;DHT22;6652;48.802;9.190;2023-07-28T13:36:43;24.30;99.90
13174;DHT22;6652;48.802;9.190;2023-07-28T13:39:11;24.30;99.90
13174;DHT22;6652;48.802;9.190;2023-07-28T13:41:38;24.00;99.90
13174;DHT22;6652;48.802;9.190;2023-07-28T13:44:04;23.80;99.90
13174;DHT22;6652;48.802;9.190;2023-07-28T13:46:31;23.80;99.90
13174;DHT22;6652;48.802;9.190;2023-07-28T13:48:58;23.50;99.90
13174;DHT22;6652;48.802;9.190;2023-07-28T13:51:25;23.40;99.90
13174;DHT22;6652;48.802;9.190;2023-07-28T13:53:52;23.10;99.90
13174;DHT22;6652;48.802;9.190;2023-07-28T13:56:20;22.80;99.90
13174;DHT22;6652;48.802;9.190;2023-07-28T13:58:47;22.60;99.90
13174;DHT22;6652;48.802;9.190;2023-07-28T14:01:14;22.30;99.90
13174;DHT22;6652;48.802;9.190;2023-07-28T14:03:41;22.10;99.90
13174;DHT22;6652;48.802;9.190;2023-07-28T14:06:08;21.80;99.90
13174;DHT22;6652;48.802;9.190;2023-07-28T14:08:35;21.70;99.90
13174;DHT22;6652;48.802;9.190;2023-07-28T14:11:02;21.70;99.90
13174;DHT22;6652;48.802;9.190;2023-07-28T14:13:30;21.50;99.90
13174;DHT22;6652;48.802;9.190;2023-07-28T14:15:58;21.20;99.90
13174;DHT22;6652;48.802;9.190;2023-07-28T14:18:25;20.90;99.90
13174;DHT22;6652;48.802;9.190;2023-07-28T14:20:53;20.60;99.90
13174;DHT22;6652;48.802;9.190;2023-07-28T14:23:22;20.40;99.90
13174;DHT22;6652;48.802;9.190;2023-07-28T14:25:49;20.40;99.90
13174;DHT22;6652;48.802;9.190;2023-07-28T14:28:16;20.50;99.90
13174;DHT22;6652;48.802;9.190;2023-07-28T14:30:45;20.60;99.90
13174;DHT22;6652;48.802;9.190;2023-07-28T14:33:12;20.70;99.90
13174;DHT22;6652;48.802;9.190;2023-07-28T14:35:39;20.90;99.90
13174;DHT22;6652;48.802;9.190;2023-07-28T14:38:06;21.10;99.90
13174;DHT22;6652;48.802;9.190;2023-07-28T14:40:33;21.10;99.90
13174;DHT22;6652;48.802;9.190;2023-07-28T14:43:00;21.10;99.90
13174;DHT22;6652;48.802;9.190;2023-07-28T14:45:27;21.10;99.90
13174;DHT22;6652;48.802;9.190;2023-07-28T14:47:55;21.20;99.90
13174;DHT22;6652;48.802;9.190;2023-07-28T14:50:22;21.20;99.90
13174;DHT22;6652;48.802;9.190;2023-07-28T14:52:49;21.20;99.90
13174;DHT22;6652;48.802;9.190;2023-07-28T14:55:15;21.30;99.90
13174;DHT22;6652;48.802;9.190;2023-07-28T14:57:42;21.30;99.90
13174;DHT22;6652;48.802;9.190;2023-07-28T15:00:10;21.10;99.90
13174;DHT22;6652;48.802;9.190;2023-07-28T15:02:38;21.40;99.90
13174;DHT22;6652;48.802;9.190;2023-07-28T15:05:07;21.50;99.90
13174;DHT22;6652;48.802;9.190;2023-07-28T15:07:34;21.60;99.90
13174;DHT22;6652;48.802;9.190;2023-07-28T15:10:01;21.70;99.90
13174;DHT22;6652;48.802;9.190;2023-07-28T15:12:28;21.70;99.90
13174;DHT22;6652;48.802;9.190;2023-07-28T15:14:55;21.70;99.90
13174;DHT22;6652;48.802;9.190;2023-07-28T15:17:21;21.70;99.90
13174;DHT22;6652;48.802;9.190;2023-07-28T15:19:48;21.70;99.90
13174;DHT22;6652;48.802;9.190;2023-07-28T15:22:16;21.70;99.90
13174;DHT22;6652;48.802;9.190;2023-07-28T15:24:43;21.80;99.90
13174;DHT22;6652;48.802;9.190;2023-07-28T15:27:10;21.90;99.90
13174;DHT22;6652;48.802;9.190;2023-07-28T15:29:40;22.00;99.90
13174;DHT22;6652;48.802;9.190;2023-07-28T15:32:07;22.20;99.90
13174;DHT22;6652;48.802;9.190;2023-07-28T15:34:34;22.20;99.90
13174;DHT22;6652;48.802;9.190;2023-07-28T15:37:01;22.10;99.90
13174;DHT22;6652;48.802;9.190;2023-07-28T15:39:30;22.10;99.90
13174;DHT22;6652;48.802;9.190;2023-07-28T15:41:57;22.00;99.90
13174;DHT22;6652;48.802;9.190;2023-07-28T15:44:24;22.10;99.90
13174;DHT22;6652;48.802;9.190;2023-07-28T15:46:51;21.90;99.90
13174;DHT22;6652;48.802;9.190;2023-07-28T15:49:18;21.70;99.90
13174;DHT22;6652;48.802;9.190;2023-07-28T15:51:45;21.60;99.90
13174;DHT22;6652;48.802;9.190;2023-07-28T15:54:12;21.50;99.90